Time;durP1;ratioP1;P1;durP2;ratioP2;P2;SDS_P1;SDS_P2;PMS_P1;PMS_P2;Temp;Humidity;BMP_temperature;BMP_pressure;BME280_temperature;BME280_humidity;BME280_pressure;Samples;Min_cycle;Max_cycle;Signal;HPM_P1;HPM_P2
2022/08/24 04:53:38;;;;;;;;;;;24.80;72.90;;;;;;5083090;22;19974;-75
2022/08/24 04:56:09;;;;;;;;;;;24.80;72.90;;;;;;5035696;28;19921;-76
2022/08/24 04:58:35;;;;;;;;;;;24.80;72.90;;;;;;5036245;28;19927;-75
2022/08/24 05:01:06;;;;;;;;;;;24.80;72.90;;;;;;5036023;28;20003;-75
2022/08/24 05:03:33;;;;;;;;;;;24.80;72.90;;;;;;5036268;28;19921;-79
2022/08/24 05:05:59;;;;;;;;;;;24.80;72.90;;;;;;5038030;28;19989;-79
2022/08/24 05:08:26;;;;;;;;;;;24.80;72.90;;;;;;5039715;28;19921;-81
2022/08/24 05:10:54;;;;;;;;;;;24.80;72.90;;;;;;5041654;28;19972;-81
2022/08/24 05:13:20;;;;;;;;;;;24.80;73.00;;;;;;5039649;28;19984;-79
2022/08/24 05:15:48;;;;;;;;;;;24.80;73.00;;;;;;5038234;28;20111;-79
2022/08/24 05:18:15;;;;;;;;;;;24.80;73.20;;;;;;5037922;28;19928;-81
2022/08/24 05:20:42;;;;;;;;;;;24.80;73.30;;;;;;5037701;28;19928;-81
2022/08/24 05:23:09;;;;;;;;;;;24.80;73.40;;;;;;5116558;22;19928;-81
2022/08/24 05:25:36;;;;;;;;;;;24.80;73.50;;;;;;5040481;28;20020;-83
2022/08/24 05:28:04;;;;;;;;;;;24.80;73.60;;;;;;5042952;28;19924;-83
2022/08/24 05:30:31;;;;;;;;;;;24.80;73.70;;;;;;5042800;28;19921;-82
2022/08/24 05:32:57;;;;;;;;;;;24.90;73.90;;;;;;5041768;28;20388;-82
2022/08/24 05:35:24;;;;;;;;;;;24.90;74.10;;;;;;5041166;28;20019;-82
2022/08/24 05:37:51;;;;;;;;;;;24.90;74.20;;;;;;5041423;28;19921;-82
2022/08/24 05:40:18;;;;;;;;;;;24.90;74.30;;;;;;5042314;28;20269;-82
2022/08/24 05:42:45;;;;;;;;;;;24.90;74.50;;;;;;5041761;28;20015;-82
2022/08/24 05:45:13;;;;;;;;;;;24.90;74.60;;;;;;5041494;28;20295;-82
2022/08/24 05:47:40;;;;;;;;;;;24.90;74.70;;;;;;5042159;28;20015;-81
2022/08/24 05:50:07;;;;;;;;;;;24.90;74.80;;;;;;5041644;28;20463;-82
2022/08/24 05:52:34;;;;;;;;;;;24.90;74.90;;;;;;5042560;28;20015;-81
2022/08/24 05:55:01;;;;;;;;;;;24.90;75.00;;;;;;5042419;28;20269;-82
2022/08/24 05:57:31;;;;;;;;;;;24.90;75.20;;;;;;5042408;28;20023;-82
2022/08/24 05:59:58;;;;;;;;;;;24.90;75.30;;;;;;5041986;28;20356;-82
2022/08/24 06:02:26;;;;;;;;;;;24.90;75.50;;;;;;5042251;28;20015;-82
2022/08/24 06:04:53;;;;;;;;;;;24.90;75.60;;;;;;5042824;28;20023;-82
2022/08/24 06:07:19;;;;;;;;;;;24.90;75.70;;;;;;5043392;28;20180;-82
2022/08/24 06:09:46;;;;;;;;;;;24.90;75.90;;;;;;5043118;28;20435;-82
2022/08/24 06:12:13;;;;;;;;;;;24.90;76.00;;;;;;5042158;28;19960;-82
2022/08/24 06:14:40;;;;;;;;;;;24.90;76.10;;;;;;5041863;28;19971;-82
2022/08/24 06:17:07;;;;;;;;;;;24.90;76.30;;;;;;5042332;28;19965;-82
2022/08/24 06:19:36;;;;;;;;;;;24.90;76.40;;;;;;5043501;28;19921;-83
2022/08/24 06:22:02;;;;;;;;;;;24.90;76.50;;;;;;5044479;28;19921;-82
2022/08/24 06:27:21;;;;;;;;;;;24.90;76.70;;;;;;5007226;28;19973;-82
2022/08/24 06:29:48;;;;;;;;;;;24.90;76.90;;;;;;5044737;28;20376;-81
2022/08/24 06:32:15;;;;;;;;;;;24.90;77.00;;;;;;5044941;28;20451;-81
2022/08/24 06:34:43;;;;;;;;;;;24.90;77.20;;;;;;5044953;28;20399;-82
2022/08/24 06:37:10;;;;;;;;;;;24.90;77.30;;;;;;5044538;28;20015;-81
2022/08/24 06:39:37;;;;;;;;;;;24.90;77.40;;;;;;5043594;28;19975;-81
2022/08/24 06:42:04;;;;;;;;;;;24.90;77.60;;;;;;5043729;28;20374;-81
2022/08/24 06:44:31;;;;;;;;;;;24.90;77.70;;;;;;5044072;28;19971;-82
2022/08/24 06:46:57;;;;;;;;;;;24.90;77.80;;;;;;5044738;28;19928;-81
2022/08/24 06:49:24;;;;;;;;;;;24.90;78.00;;;;;;5047807;28;19921;-81
2022/08/24 06:51:52;;;;;;;;;;;24.90;78.20;;;;;;5047603;28;19921;-80
2022/08/24 06:54:19;;;;;;;;;;;24.90;78.30;;;;;;5047175;28;20351;-80
2022/08/24 06:56:46;;;;;;;;;;;24.90;78.50;;;;;;5050328;28;20331;-82
2022/08/24 06:59:13;;;;;;;;;;;24.90;78.70;;;;;;5053308;28;19948;-82
2022/08/24 07:01:39;;;;;;;;;;;24.90;78.90;;;;;;5049083;28;20355;-82
2022/08/24 07:04:06;;;;;;;;;;;24.90;79.00;;;;;;5049646;28;20383;-81
2022/08/24 07:06:34;;;;;;;;;;;24.90;79.00;;;;;;5050681;28;20368;-81
2022/08/24 07:09:03;;;;;;;;;;;24.90;79.00;;;;;;5047158;28;19964;-82
2022/08/24 07:11:31;;;;;;;;;;;24.90;79.00;;;;;;5045636;28;19925;-83
2022/08/24 07:13:58;;;;;;;;;;;24.90;79.00;;;;;;5042849;28;19921;-85
2022/08/24 07:16:24;;;;;;;;;;;24.90;79.40;;;;;;5039147;28;19975;-83
2022/08/24 07:18:51;;;;;;;;;;;24.90;79.40;;;;;;5041853;28;19922;-82
2022/08/24 07:21:18;;;;;;;;;;;24.90;79.40;;;;;;5040918;28;20260;-86
2022/08/24 07:23:49;;;;;;;;;;;24.90;79.30;;;;;;5039806;28;19957;-84
2022/08/24 07:26:19;;;;;;;;;;;24.80;78.90;;;;;;5043364;28;19921;-85
2022/08/24 07:28:46;;;;;;;;;;;24.80;78.90;;;;;;5045611;28;19928;-85
2022/08/24 07:31:13;;;;;;;;;;;24.80;78.70;;;;;;5044750;28;20364;-84
2022/08/24 07:33:40;;;;;;;;;;;24.70;78.20;;;;;;5042548;28;19924;-85
2022/08/24 07:36:07;;;;;;;;;;;24.70;77.90;;;;;;5043282;28;19982;-88
2022/08/24 07:38:35;;;;;;;;;;;24.70;77.60;;;;;;5045730;28;19925;-83
2022/08/24 07:41:02;;;;;;;;;;;24.70;77.20;;;;;;5046249;28;19944;-83
2022/08/24 07:43:31;;;;;;;;;;;24.70;76.80;;;;;;5046416;28;19975;-81
2022/08/24 07:45:58;;;;;;;;;;;24.70;76.50;;;;;;5048612;28;19928;-80
2022/08/24 07:48:27;;;;;;;;;;;24.70;76.00;;;;;;5044071;28;20331;-77
2022/08/24 07:50:58;;;;;;;;;;;24.60;75.60;;;;;;5041307;28;19944;-77
2022/08/24 07:53:25;;;;;;;;;;;24.70;75.30;;;;;;5041220;28;19921;-77
2022/08/24 07:55:53;;;;;;;;;;;24.60;74.70;;;;;;5040790;28;19928;-77
2022/08/24 07:58:20;;;;;;;;;;;24.60;74.20;;;;;;5041481;28;19921;-77
2022/08/24 08:00:49;;;;;;;;;;;24.60;73.70;;;;;;5042385;28;20332;-77
2022/08/24 08:03:17;;;;;;;;;;;24.60;73.20;;;;;;5041539;28;19960;-77
2022/08/24 08:05:44;;;;;;;;;;;24.60;72.80;;;;;;5039104;28;20307;-77
2022/08/24 08:08:11;;;;;;;;;;;24.60;72.70;;;;;;5041606;28;20339;-75
2022/08/24 08:10:39;;;;;;;;;;;24.60;72.50;;;;;;5046576;28;20346;-80
2022/08/24 08:13:06;;;;;;;;;;;24.60;71.90;;;;;;5047567;28;19920;-81
2022/08/24 08:15:33;;;;;;;;;;;24.60;71.50;;;;;;5041406;28;20011;-80
2022/08/24 08:18:01;;;;;;;;;;;24.60;71.20;;;;;;5040973;28;19921;-80
2022/08/24 08:20:29;;;;;;;;;;;24.60;70.80;;;;;;5041619;28;19944;-80
2022/08/24 08:25:40;;;;;;;;;;;24.60;70.20;;;;;;5045607;28;19963;-80
2022/08/24 08:28:08;;;;;;;;;;;24.60;69.80;;;;;;5043461;28;19921;-79
2022/08/24 08:30:35;;;;;;;;;;;24.60;69.50;;;;;;5043381;28;20015;-79
2022/08/24 08:33:03;;;;;;;;;;;24.60;69.20;;;;;;5043936;28;19967;-79
2022/08/24 08:35:32;;;;;;;;;;;24.60;68.90;;;;;;5044153;28;20385;-80
2022/08/24 08:38:00;;;;;;;;;;;24.60;68.50;;;;;;5045355;28;19949;-80
2022/08/24 08:40:31;;;;;;;;;;;24.60;68.30;;;;;;5045279;28;19975;-79
2022/08/24 08:43:04;;;;;;;;;;;24.60;68.00;;;;;;5043932;28;19921;-80
2022/08/24 08:45:34;;;;;;;;;;;24.60;67.60;;;;;;5044174;28;19960;-80
2022/08/24 08:48:16;;;;;;;;;;;24.60;67.20;;;;;;5045473;28;19957;-79
2022/08/24 08:50:53;;;;;;;;;;;24.50;66.60;;;;;;5042833;28;19929;-79
2022/08/24 08:53:34;;;;;;;;;;;24.50;66.60;;;;;;5044703;28;20345;-80
2022/08/24 08:56:04;;;;;;;;;;;24.50;66.20;;;;;;5042271;28;20082;-77
2022/08/24 08:58:43;;;;;;;;;;;24.50;65.70;;;;;;5043084;28;19925;-78
2022/08/24 09:01:15;;;;;;;;;;;24.50;65.40;;;;;;5042765;28;19921;-77
2022/08/24 09:04:02;;;;;;;;;;;24.50;65.00;;;;;;5042814;28;19968;-79
2022/08/24 09:06:44;;;;;;;;;;;24.50;64.70;;;;;;5039247;28;19990;-74
2022/08/24 09:09:25;;;;;;;;;;;24.50;64.50;;;;;;5036882;28;19921;-75
2022/08/24 09:11:58;;;;;;;;;;;24.60;64.30;;;;;;5038223;28;19944;-75
2022/08/24 09:14:38;;;;;;;;;;;24.60;64.10;;;;;;5037802;28;19920;-74
2022/08/24 09:17:18;;;;;;;;;;;24.60;63.80;;;;;;5038596;28;19968;-75
2022/08/24 09:19:56;;;;;;;;;;;24.60;63.70;;;;;;5038665;28;19921;-76
2022/08/24 09:22:24;;;;;;;;;;;24.60;63.50;;;;;;5037507;28;19932;-77
2022/08/24 09:25:05;;;;;;;;;;;24.60;63.30;;;;;;5038234;28;19925;-76
2022/08/24 09:27:36;;;;;;;;;;;24.70;63.30;;;;;;5038441;28;19988;-75
2022/08/24 09:30:07;;;;;;;;;;;24.70;63.20;;;;;;5037623;28;20380;-75
2022/08/24 09:32:36;;;;;;;;;;;24.70;63.10;;;;;;5037331;28;20314;-76
2022/08/24 09:35:04;;;;;;;;;;;24.70;63.00;;;;;;5037048;28;20011;-76
2022/08/24 09:37:34;;;;;;;;;;;24.70;63.00;;;;;;5038103;28;19966;-75
2022/08/24 09:40:03;;;;;;;;;;;24.70;62.90;;;;;;5038279;28;19927;-75
2022/08/24 09:42:44;;;;;;;;;;;24.70;62.80;;;;;;5037966;28;19936;-76
2022/08/24 09:45:23;;;;;;;;;;;24.70;62.80;;;;;;5036492;28;20380;-76
2022/08/24 09:48:04;;;;;;;;;;;24.80;62.80;;;;;;5036596;28;19921;-75
2022/08/24 09:50:45;;;;;;;;;;;24.80;62.80;;;;;;5038029;28;19928;-75
2022/08/24 09:53:27;;;;;;;;;;;24.80;62.80;;;;;;5036208;28;20411;-75
2022/08/24 09:56:01;;;;;;;;;;;24.80;62.80;;;;;;5037541;28;19921;-74
2022/08/24 09:58:36;;;;;;;;;;;24.80;62.80;;;;;;5037590;28;19927;-74
2022/08/24 10:01:07;;;;;;;;;;;24.80;62.80;;;;;;5037508;28;20361;-75
2022/08/24 10:03:43;;;;;;;;;;;24.80;62.80;;;;;;5037539;28;19921;-75
2022/08/24 10:06:13;;;;;;;;;;;24.90;62.90;;;;;;5036622;28;19951;-74
2022/08/24 10:08:48;;;;;;;;;;;24.90;62.90;;;;;;5037356;28;19921;-79
2022/08/24 10:11:21;;;;;;;;;;;24.90;62.90;;;;;;5042154;28;19921;-79
2022/08/24 10:13:51;;;;;;;;;;;24.90;63.00;;;;;;5044906;28;19964;-80
2022/08/24 10:16:27;;;;;;;;;;;24.90;62.90;;;;;;5046428;28;19921;-82
2022/08/24 10:19:03;;;;;;;;;;;24.90;63.00;;;;;;5048448;28;19921;-80
2022/08/24 10:21:36;;;;;;;;;;;24.90;63.00;;;;;;5046627;28;19921;-82
2022/08/24 10:24:16;;;;;;;;;;;24.90;63.10;;;;;;5046807;28;20007;-82
2022/08/24 10:26:52;;;;;;;;;;;24.90;63.10;;;;;;5045159;28;20008;-82
2022/08/24 10:29:26;;;;;;;;;;;24.90;63.20;;;;;;5043024;28;19921;-82
2022/08/24 10:32:03;;;;;;;;;;;25.00;63.30;;;;;;5044229;28;19987;-83
2022/08/24 10:34:39;;;;;;;;;;;25.00;63.40;;;;;;5043450;28;19921;-82
2022/08/24 10:37:16;;;;;;;;;;;25.00;63.40;;;;;;5043185;28;19944;-79
2022/08/24 10:39:59;;;;;;;;;;;25.00;63.50;;;;;;5040569;28;19921;-78
2022/08/24 10:45:42;;;;;;;;;;;25.00;63.50;;;;;;5037463;28;20159;-79
2022/08/24 10:48:21;;;;;;;;;;;25.00;63.60;;;;;;5037287;28;19927;-79
2022/08/24 10:50:52;;;;;;;;;;;25.00;63.50;;;;;;5037900;28;19929;-79
2022/08/24 10:53:24;;;;;;;;;;;25.00;63.60;;;;;;5037967;28;19956;-80
2022/08/24 10:55:57;;;;;;;;;;;25.00;63.60;;;;;;5037601;28;19920;-80
2022/08/24 10:58:40;;;;;;;;;;;25.00;63.60;;;;;;5037161;28;19933;-80
2022/08/24 11:01:17;;;;;;;;;;;25.00;63.60;;;;;;5036953;28;19928;-80
2022/08/24 11:03:52;;;;;;;;;;;25.00;64.40;;;;;;5037015;28;20380;-80
2022/08/24 11:06:20;;;;;;;;;;;25.00;63.60;;;;;;5035841;28;19927;-79
2022/08/24 11:08:52;;;;;;;;;;;25.00;63.70;;;;;;5036083;28;19928;-80
2022/08/24 11:11:22;;;;;;;;;;;25.00;63.70;;;;;;5036367;28;19921;-79
2022/08/24 11:13:51;;;;;;;;;;;25.00;63.70;;;;;;5035089;28;19927;-79
2022/08/24 11:16:25;;;;;;;;;;;25.00;63.70;;;;;;5037588;28;19921;-79
2022/08/24 11:18:53;;;;;;;;;;;25.00;63.70;;;;;;5037468;28;19921;-79
2022/08/24 11:21:31;;;;;;;;;;;25.00;63.70;;;;;;5036908;28;19921;-80
2022/08/24 11:24:00;;;;;;;;;;;25.00;63.70;;;;;;5035901;28;20291;-79
2022/08/24 11:26:27;;;;;;;;;;;25.00;63.70;;;;;;5035453;28;19979;-79
2022/08/24 11:28:57;;;;;;;;;;;25.00;63.70;;;;;;5036211;28;19927;-79
2022/08/24 11:31:29;;;;;;;;;;;25.00;63.80;;;;;;5036819;28;20283;-79
2022/08/24 11:33:59;;;;;;;;;;;25.00;63.80;;;;;;5038611;28;20012;-79
2022/08/24 11:36:27;;;;;;;;;;;25.00;63.80;;;;;;5040094;28;19925;-80
2022/08/24 11:39:09;;;;;;;;;;;25.00;63.80;;;;;;5039927;28;20008;-79
2022/08/24 11:41:41;;;;;;;;;;;25.00;63.80;;;;;;5040332;28;19921;-79
2022/08/24 11:44:13;;;;;;;;;;;25.00;63.80;;;;;;5039621;28;19928;-79
2022/08/24 11:46:45;;;;;;;;;;;25.00;63.90;;;;;;5039240;28;19921;-79
2022/08/24 11:49:14;;;;;;;;;;;25.00;63.90;;;;;;5041789;28;19921;-79
2022/08/24 11:51:46;;;;;;;;;;;25.00;63.90;;;;;;5040261;28;20009;-79
2022/08/24 11:54:18;;;;;;;;;;;25.10;64.10;;;;;;5040890;28;19972;-79
2022/08/24 11:56:50;;;;;;;;;;;25.00;64.00;;;;;;5040761;28;19928;-79
2022/08/24 11:59:19;;;;;;;;;;;25.10;64.10;;;;;;5039780;28;19967;-78
2022/08/24 12:01:49;;;;;;;;;;;25.00;64.00;;;;;;5037423;28;19927;-78
2022/08/24 12:04:34;;;;;;;;;;;25.10;64.10;;;;;;5037510;28;20043;-78
2022/08/24 12:07:06;;;;;;;;;;;25.10;64.10;;;;;;5029809;28;19927;-78
2022/08/24 12:09:41;;;;;;;;;;;25.10;64.20;;;;;;5036778;28;19925;-78
2022/08/24 12:12:11;;;;;;;;;;;25.10;64.20;;;;;;5036827;28;19927;-79
2022/08/24 12:14:40;;;;;;;;;;;25.10;64.20;;;;;;5036327;28;19968;-78
2022/08/24 12:17:13;;;;;;;;;;;25.10;64.20;;;;;;5035855;28;19927;-78
2022/08/24 12:19:44;;;;;;;;;;;25.10;64.20;;;;;;5035889;28;20390;-78
2022/08/24 12:22:12;;;;;;;;;;;25.10;64.30;;;;;;5036141;28;19921;-78
2022/08/24 12:24:40;;;;;;;;;;;25.10;64.30;;;;;;5035813;28;19927;-78
2022/08/24 12:27:09;;;;;;;;;;;25.10;64.30;;;;;;5035930;28;20424;-78
2022/08/24 12:29:38;;;;;;;;;;;25.10;64.30;;;;;;5036422;28;19921;-78
2022/08/24 12:32:06;;;;;;;;;;;25.10;64.40;;;;;;5036239;28;19921;-78
2022/08/24 12:34:41;;;;;;;;;;;25.10;64.30;;;;;;5036156;28;19929;-78
2022/08/24 12:37:09;;;;;;;;;;;25.10;64.40;;;;;;5036194;28;19927;-78
2022/08/24 12:39:39;;;;;;;;;;;25.10;64.40;;;;;;5036325;28;20284;-78
2022/08/24 12:42:08;;;;;;;;;;;25.10;64.40;;;;;;5036165;28;19928;-78
2022/08/24 12:44:39;;;;;;;;;;;25.10;64.50;;;;;;5035684;28;19921;-78
2022/08/24 12:47:06;;;;;;;;;;;25.10;64.50;;;;;;5037955;28;19921;-81
2022/08/24 12:49:36;;;;;;;;;;;25.10;64.50;;;;;;5040228;28;19925;-81
2022/08/24 12:52:12;;;;;;;;;;;25.10;64.50;;;;;;5037302;28;19947;-78
2022/08/24 12:54:51;;;;;;;;;;;25.10;64.50;;;;;;5035902;28;19921;-78
2022/08/24 12:57:33;;;;;;;;;;;25.10;64.60;;;;;;5035779;28;20368;-78
2022/08/24 13:00:03;;;;;;;;;;;25.10;64.60;;;;;;5036379;28;19927;-78
2022/08/24 13:02:35;;;;;;;;;;;25.10;64.70;;;;;;5035765;28;19921;-78
2022/08/24 13:05:08;;;;;;;;;;;25.10;64.70;;;;;;5035683;28;20300;-78
2022/08/24 13:07:41;;;;;;;;;;;25.20;64.90;;;;;;5035615;28;19975;-78
2022/08/24 13:10:13;;;;;;;;;;;25.10;64.80;;;;;;5035659;28;19921;-78
2022/08/24 13:12:53;;;;;;;;;;;25.20;65.00;;;;;;5035493;28;19921;-78
2022/08/24 13:15:46;;;;;;;;;;;25.20;65.00;;;;;;5035446;28;19921;-78
2022/08/24 13:18:32;;;;;;;;;;;25.20;65.00;;;;;;5034951;28;19925;-78
2022/08/24 13:20:58;;;;;;;;;;;25.20;65.00;;;;;;5035881;28;20335;-79
2022/08/24 13:23:26;;;;;;;;;;;25.20;65.10;;;;;;5036289;28;19921;-79
2022/08/24 14:19:47;;;;;;;;;;;25.50;66.10;;;;;;4995332;28;19925;-81
2022/08/24 14:22:18;;;;;;;;;;;25.40;66.00;;;;;;4995991;28;19981;-81
2022/08/24 14:24:47;;;;;;;;;;;25.50;66.00;;;;;;5015977;28;19956;-81
2022/08/24 14:27:28;;;;;;;;;;;25.50;66.00;;;;;;5037645;28;19925;-81
2022/08/24 14:30:15;;;;;;;;;;;25.50;66.00;;;;;;5038000;28;19964;-82
2022/08/24 14:32:47;;;;;;;;;;;25.50;65.90;;;;;;5036803;28;19921;-81
2022/08/24 14:35:19;;;;;;;;;;;25.40;65.70;;;;;;5037253;28;19929;-81
2022/08/24 14:37:50;;;;;;;;;;;25.40;65.60;;;;;;5037502;28;19921;-81
2022/08/24 14:40:23;;;;;;;;;;;25.40;65.60;;;;;;5037153;28;20011;-81
2022/08/24 14:42:55;;;;;;;;;;;25.40;65.60;;;;;;5037754;28;20273;-83
2022/08/24 14:45:25;;;;;;;;;;;25.40;65.50;;;;;;5041854;28;19921;-82
2022/08/24 14:47:59;;;;;;;;;;;25.40;65.40;;;;;;5041218;28;19928;-82
2022/08/24 14:50:32;;;;;;;;;;;25.40;65.40;;;;;;5041662;28;20346;-82
2022/08/24 14:53:07;;;;;;;;;;;25.40;65.40;;;;;;5042134;28;19921;-82
2022/08/24 14:55:38;;;;;;;;;;;25.40;65.30;;;;;;5041326;28;19943;-83
2022/08/24 14:58:22;;;;;;;;;;;25.40;65.30;;;;;;5041463;28;19921;-83
2022/08/24 15:00:55;;;;;;;;;;;25.40;65.30;;;;;;5042668;28;19921;-82
2022/08/24 15:03:50;;;;;;;;;;;25.40;65.30;;;;;;5041385;28;19971;-83
2022/08/24 15:06:22;;;;;;;;;;;25.30;65.20;;;;;;5042004;28;19971;-82
2022/08/24 15:08:49;;;;;;;;;;;25.30;65.10;;;;;;5045055;28;19921;-83
2022/08/24 15:11:17;;;;;;;;;;;25.30;65.10;;;;;;5044711;28;19921;-83
2022/08/24 15:13:47;;;;;;;;;;;25.30;65.10;;;;;;5041442;28;19932;-83
2022/08/24 15:16:15;;;;;;;;;;;25.30;65.10;;;;;;5044971;28;19929;-83
2022/08/24 15:18:46;;;;;;;;;;;25.30;65.10;;;;;;5044938;28;19920;-83
2022/08/24 15:21:21;;;;;;;;;;;25.30;65.10;;;;;;5045344;28;20003;-83
2022/08/24 15:23:57;;;;;;;;;;;25.30;65.00;;;;;;5044931;28;20019;-83
2022/08/24 15:26:29;;;;;;;;;;;25.30;65.00;;;;;;5044952;28;19924;-82
2022/08/24 15:28:56;;;;;;;;;;;25.30;65.00;;;;;;5045158;28;19928;-82
2022/08/24 15:31:24;;;;;;;;;;;25.30;65.10;;;;;;5045779;28;20012;-82
2022/08/24 15:33:54;;;;;;;;;;;25.30;65.00;;;;;;5044530;28;19921;-82
2022/08/24 15:36:21;;;;;;;;;;;25.30;65.00;;;;;;5044497;28;19971;-82
2022/08/24 15:38:48;;;;;;;;;;;25.30;65.00;;;;;;5044489;28;19921;-82
2022/08/24 15:41:16;;;;;;;;;;;25.30;65.00;;;;;;5041425;28;19976;-82
2022/08/24 15:43:44;;;;;;;;;;;25.30;65.00;;;;;;5041402;28;19956;-82
2022/08/24 15:46:11;;;;;;;;;;;25.30;64.90;;;;;;5041225;28;20026;-81
2022/08/24 15:48:40;;;;;;;;;;;25.30;65.00;;;;;;5041015;28;19920;-82
2022/08/24 15:51:08;;;;;;;;;;;25.30;65.00;;;;;;5040680;28;20343;-82
2022/08/24 15:53:36;;;;;;;;;;;25.30;64.90;;;;;;5040446;28;19921;-82
2022/08/24 15:56:22;;;;;;;;;;;25.30;64.90;;;;;;5040502;28;19944;-81
2022/08/24 15:58:49;;;;;;;;;;;25.30;64.90;;;;;;5040833;28;19985;-82
2022/08/24 16:04:06;;;;;;;;;;;25.20;64.90;;;;;;5040615;28;19924;-83
2022/08/24 16:06:39;;;;;;;;;;;25.30;65.00;;;;;;5038604;28;20381;-83
2022/08/24 16:09:08;;;;;;;;;;;25.30;64.90;;;;;;5038981;28;20467;-81
2022/08/24 16:11:37;;;;;;;;;;;25.30;64.90;;;;;;5038880;28;20015;-80
2022/08/24 16:14:05;;;;;;;;;;;25.20;64.90;;;;;;5039185;28;19925;-80
2022/08/24 16:16:34;;;;;;;;;;;25.20;64.90;;;;;;5037818;28;19921;-80
2022/08/24 16:19:01;;;;;;;;;;;25.30;64.90;;;;;;5038789;28;19921;-82
2022/08/24 16:21:29;;;;;;;;;;;25.30;64.90;;;;;;5039473;28;19921;-81
2022/08/24 16:24:01;;;;;;;;;;;25.20;64.90;;;;;;5039718;28;20011;-78
2022/08/24 16:26:30;;;;;;;;;;;25.20;64.80;;;;;;5038165;28;19928;-78
2022/08/24 16:28:57;;;;;;;;;;;25.20;64.80;;;;;;5036543;28;19927;-79
2022/08/24 16:31:43;;;;;;;;;;;25.20;64.70;;;;;;5036724;28;19971;-78
2022/08/24 16:34:15;;;;;;;;;;;25.20;64.60;;;;;;5036345;28;19921;-78
2022/08/24 16:36:42;;;;;;;;;;;25.20;64.50;;;;;;5036417;28;19927;-78
2022/08/24 16:39:10;;;;;;;;;;;25.20;64.20;;;;;;5036187;28;19975;-77
2022/08/24 16:41:38;;;;;;;;;;;25.20;64.10;;;;;;5036021;28;19921;-77
2022/08/24 16:44:05;;;;;;;;;;;25.20;63.90;;;;;;5035670;28;20372;-77
2022/08/24 16:46:32;;;;;;;;;;;25.10;63.60;;;;;;5035919;28;19927;-77
2022/08/24 16:48:58;;;;;;;;;;;25.10;63.50;;;;;;5036503;28;19927;-77
2022/08/24 16:51:25;;;;;;;;;;;25.10;63.20;;;;;;5035875;28;19921;-77
2022/08/24 16:53:52;;;;;;;;;;;25.10;63.10;;;;;;5035951;28;19927;-77
2022/08/24 16:56:20;;;;;;;;;;;25.10;63.00;;;;;;5035407;28;20292;-77
2022/08/24 16:58:47;;;;;;;;;;;25.10;62.80;;;;;;5035723;28;19927;-77
2022/08/24 17:01:14;;;;;;;;;;;25.10;62.50;;;;;;5035629;28;19921;-78
2022/08/24 17:03:41;;;;;;;;;;;25.10;62.30;;;;;;5042669;28;20300;-81
2022/08/24 17:06:11;;;;;;;;;;;25.10;62.10;;;;;;5043247;28;20007;-78
2022/08/24 17:08:37;;;;;;;;;;;25.10;62.00;;;;;;5038412;28;19921;-79
2022/08/24 17:11:04;;;;;;;;;;;25.10;61.90;;;;;;5036924;28;20016;-78
2022/08/24 17:13:32;;;;;;;;;;;25.10;61.70;;;;;;5038123;28;19928;-78
2022/08/24 17:15:59;;;;;;;;;;;25.10;61.50;;;;;;5037611;28;19999;-78
2022/08/24 17:18:26;;;;;;;;;;;25.10;61.10;;;;;;5037094;28;19921;-78
2022/08/24 17:20:53;;;;;;;;;;;25.10;61.10;;;;;;5038518;28;20007;-80
2022/08/24 17:23:20;;;;;;;;;;;25.10;61.00;;;;;;5039160;28;20300;-80
2022/08/24 17:25:46;;;;;;;;;;;25.10;61.00;;;;;;5038440;28;19928;-80
2022/08/24 17:28:15;;;;;;;;;;;25.10;61.90;;;;;;5038629;28;19928;-80
2022/08/24 17:30:43;;;;;;;;;;;25.10;61.00;;;;;;5037666;28;19921;-80
2022/08/24 17:33:10;;;;;;;;;;;25.10;61.00;;;;;;5038992;28;19921;-80
2022/08/24 17:35:37;;;;;;;;;;;25.10;61.00;;;;;;5038666;28;20364;-80
2022/08/24 17:38:04;;;;;;;;;;;25.10;61.00;;;;;;5037526;28;20299;-80
2022/08/24 17:40:32;;;;;;;;;;;25.10;61.00;;;;;;5036038;28;20384;-79
2022/08/24 17:42:59;;;;;;;;;;;25.10;61.00;;;;;;5036721;28;19927;-81
2022/08/24 17:45:25;;;;;;;;;;;25.10;61.00;;;;;;5035765;28;20439;-79
2022/08/24 17:47:53;;;;;;;;;;;25.10;61.00;;;;;;5036439;28;19927;-80
2022/08/24 17:50:20;;;;;;;;;;;25.10;60.90;;;;;;5036471;28;19921;-80
2022/08/24 17:52:47;;;;;;;;;;;25.10;60.90;;;;;;5036016;28;19921;-80
2022/08/24 17:55:15;;;;;;;;;;;25.10;60.80;;;;;;5036288;28;19960;-79
2022/08/24 17:57:42;;;;;;;;;;;25.10;60.70;;;;;;5035553;28;19921;-80
2022/08/24 18:00:10;;;;;;;;;;;25.10;60.60;;;;;;5035834;28;20281;-80
2022/08/24 18:02:38;;;;;;;;;;;25.10;60.70;;;;;;5036296;28;19924;-81
2022/08/24 18:05:07;;;;;;;;;;;25.20;60.70;;;;;;5036653;28;19924;-81
2022/08/24 18:07:34;;;;;;;;;;;25.20;60.70;;;;;;5036148;28;19925;-81
2022/08/24 18:10:02;;;;;;;;;;;25.10;60.60;;;;;;5036744;28;19944;-82
2022/08/24 18:12:29;;;;;;;;;;;25.20;60.60;;;;;;5037055;28;19960;-82
2022/08/24 18:14:56;;;;;;;;;;;25.10;60.60;;;;;;5036187;28;19932;-82
2022/08/24 18:17:26;;;;;;;;;;;25.20;60.60;;;;;;5035887;28;19978;-81
2022/08/24 18:19:53;;;;;;;;;;;25.20;60.60;;;;;;5036100;28;20344;-80
2022/08/24 18:22:22;;;;;;;;;;;25.20;60.60;;;;;;5036952;28;20300;-80
2022/08/24 18:24:48;;;;;;;;;;;25.20;60.60;;;;;;5035206;28;19921;-78
2022/08/24 18:27:18;;;;;;;;;;;25.20;60.60;;;;;;5034317;28;20401;-78
2022/08/24 18:29:45;;;;;;;;;;;25.20;60.60;;;;;;5034122;28;19921;-79
2022/08/24 18:32:12;;;;;;;;;;;25.20;60.70;;;;;;5034484;28;19928;-79
2022/08/24 18:34:39;;;;;;;;;;;25.20;60.80;;;;;;5034755;28;19967;-79
2022/08/24 18:37:06;;;;;;;;;;;25.20;60.80;;;;;;5034796;28;19993;-80
2022/08/24 18:39:34;;;;;;;;;;;25.20;61.00;;;;;;5035052;28;19972;-79
2022/08/24 18:42:02;;;;;;;;;;;25.20;61.00;;;;;;5034078;28;19925;-79
2022/08/24 18:44:29;;;;;;;;;;;25.20;61.10;;;;;;5034750;28;19971;-80
2022/08/24 18:46:56;;;;;;;;;;;25.20;61.20;;;;;;5034610;28;19926;-79
2022/08/24 18:49:22;;;;;;;;;;;25.20;61.20;;;;;;5034408;28;19927;-79
2022/08/24 18:51:49;;;;;;;;;;;25.20;61.20;;;;;;5034715;28;20016;-79
2022/08/24 18:54:19;;;;;;;;;;;25.20;61.20;;;;;;5034782;28;19925;-80
2022/08/24 18:56:47;;;;;;;;;;;25.20;61.10;;;;;;5034991;28;20008;-79
2022/08/24 18:59:14;;;;;;;;;;;25.20;61.20;;;;;;5034791;28;19921;-81
2022/08/24 19:04:26;;;;;;;;;;;25.20;61.30;;;;;;5034630;28;20032;-82
2022/08/24 19:06:52;;;;;;;;;;;25.20;61.50;;;;;;5034325;28;20016;-81
2022/08/24 19:09:19;;;;;;;;;;;25.20;61.70;;;;;;5034347;28;19928;-81
2022/08/24 19:11:47;;;;;;;;;;;25.20;61.90;;;;;;5034681;28;20024;-81
2022/08/24 19:14:14;;;;;;;;;;;25.20;62.20;;;;;;5034317;28;19921;-82
2022/08/24 19:16:41;;;;;;;;;;;25.20;62.30;;;;;;5034231;28;19921;-79
2022/08/24 19:19:07;;;;;;;;;;;25.30;62.60;;;;;;5034582;28;20011;-81
2022/08/24 19:21:35;;;;;;;;;;;25.30;62.60;;;;;;5034416;28;20015;-81
2022/08/24 19:24:02;;;;;;;;;;;25.30;62.80;;;;;;5034784;28;19980;-78
2022/08/24 19:26:29;;;;;;;;;;;25.30;63.00;;;;;;5034200;28;19921;-80
2022/08/24 19:28:58;;;;;;;;;;;25.30;63.10;;;;;;5034177;28;19928;-80
2022/08/24 19:31:26;;;;;;;;;;;25.30;63.30;;;;;;5033813;28;19928;-80
2022/08/24 19:33:52;;;;;;;;;;;25.30;63.40;;;;;;5034739;28;19920;-80
2022/08/24 19:36:20;;;;;;;;;;;25.30;63.60;;;;;;5034061;28;19921;-80
2022/08/24 19:38:47;;;;;;;;;;;25.30;63.80;;;;;;5033913;28;19921;-80
2022/08/24 19:41:14;;;;;;;;;;;25.30;63.90;;;;;;5034006;28;20376;-80
2022/08/24 19:46:23;;;;;;;;;;;25.30;64.30;;;;;;5033413;28;20295;-80
2022/08/24 19:48:50;;;;;;;;;;;25.30;64.40;;;;;;5038220;28;20341;-80
2022/08/24 19:51:17;;;;;;;;;;;25.30;64.60;;;;;;5038331;28;20040;-80
2022/08/24 19:53:43;;;;;;;;;;;25.30;64.80;;;;;;5038537;28;19921;-80
2022/08/24 19:56:11;;;;;;;;;;;25.30;64.90;;;;;;5040690;28;20287;-80
2022/08/24 19:58:39;;;;;;;;;;;25.30;65.10;;;;;;5041030;28;19925;-80
2022/08/24 20:01:10;;;;;;;;;;;25.30;65.20;;;;;;5040697;28;20372;-80
2022/08/24 20:03:38;;;;;;;;;;;25.30;65.40;;;;;;5041497;28;19931;-80
2022/08/24 20:06:04;;;;;;;;;;;25.30;65.50;;;;;;5041253;28;19927;-81
2022/08/24 20:08:31;;;;;;;;;;;25.30;65.60;;;;;;5041226;28;19921;-80
2022/08/24 20:10:59;;;;;;;;;;;25.30;65.80;;;;;;5041312;28;19960;-82
2022/08/24 20:13:26;;;;;;;;;;;25.30;66.00;;;;;;5041016;28;19976;-81
2022/08/24 20:15:53;;;;;;;;;;;25.30;66.10;;;;;;5040801;28;19928;-81
2022/08/24 20:18:23;;;;;;;;;;;25.30;66.20;;;;;;5040080;28;19927;-81
2022/08/24 20:20:52;;;;;;;;;;;25.30;66.40;;;;;;5040351;28;19968;-81
2022/08/24 20:23:18;;;;;;;;;;;25.30;66.50;;;;;;5040411;28;19921;-81
2022/08/24 20:25:45;;;;;;;;;;;25.30;66.70;;;;;;5040209;28;19927;-81
2022/08/24 20:28:12;;;;;;;;;;;25.30;66.90;;;;;;5039654;28;19925;-81
2022/08/24 20:30:38;;;;;;;;;;;25.30;67.00;;;;;;5040590;28;19991;-81
2022/08/24 20:33:06;;;;;;;;;;;25.30;68.10;;;;;;5040486;28;20424;-81
2022/08/24 20:35:33;;;;;;;;;;;25.30;67.30;;;;;;5039618;28;19925;-81